Rodman, Iowa
Current Conditions -  °F | °C
As of 9:15 AM on Saturday 22 Nov 2014 (Local Time) from KAXA Reporting Station
Moderate Fog Moderate Fog  
Wind Chill: 27°   Ceiling: 200
Heat Index: 36°   Visibility: 0mi
Dew Point: 36°   Wind: 14mph
Humidity: 100%   Direction: 220°SW
Pressure: 29.8"   Gusts: NA
Location:  43.0372°N, 94.5003°W
Report Text: KAXA 221515Z AUTO 22012KT M1/4SM FG OVC002 02/02 A2980 RMK AO2
Loading
Personal Weather Stations






























Interactive Weather Map New forecast layout! Learn more

10-Day Weather Forecast

Advertisements
Track Severe Weather on mobile